createdAt,value
2019-02-15T00:00:26.041Z,13.00
2019-02-15T00:01:25.980Z,12.30
2019-02-15T00:02:25.967Z,11.90
2019-02-15T00:03:25.965Z,13.20
2019-02-15T00:04:25.944Z,13.50
2019-02-15T00:05:25.983Z,12.50
2019-02-15T00:06:25.921Z,13.20
2019-02-15T00:07:25.922Z,12.30
2019-02-15T00:08:25.906Z,11.80
2019-02-15T00:09:25.891Z,11.90
2019-02-15T00:10:25.927Z,12.30
2019-02-15T00:11:25.869Z,12.00
2019-02-15T00:12:25.862Z,11.90
2019-02-15T00:13:25.847Z,11.10
2019-02-15T00:14:25.883Z,11.40
2019-02-15T00:15:25.871Z,12.30
2019-02-15T00:16:25.815Z,12.00
2019-02-15T00:17:25.883Z,12.00
2019-02-15T00:18:25.808Z,11.80
2019-02-15T00:19:25.782Z,12.20
2019-02-15T00:20:25.816Z,12.00
2019-02-15T00:21:25.763Z,12.40
2019-02-15T00:22:25.749Z,11.70
2019-02-15T00:23:25.754Z,11.30
2019-02-15T00:24:25.727Z,11.40
2019-02-15T00:25:25.762Z,11.40
2019-02-15T00:26:25.729Z,10.50
2019-02-15T00:27:25.694Z,11.40
2019-02-15T00:28:25.739Z,11.50
2019-02-15T00:29:25.682Z,11.40
2019-02-15T00:30:25.715Z,10.20
2019-02-15T00:31:25.657Z,10.90
2019-02-15T00:32:25.667Z,10.50
2019-02-15T00:33:25.630Z,11.70
2019-02-15T00:34:25.617Z,11.80
2019-02-15T00:35:25.651Z,13.10
2019-02-15T00:36:25.597Z,11.50
2019-02-15T00:37:25.586Z,11.60
2019-02-15T00:38:25.574Z,11.50
2019-02-15T00:39:25.573Z,11.30
2019-02-15T00:40:25.609Z,11.00
2019-02-15T00:41:25.544Z,10.80
2019-02-15T00:42:25.536Z,13.00
2019-02-15T00:43:25.527Z,11.10
2019-02-15T00:44:25.539Z,12.10
2019-02-15T00:45:25.553Z,11.70
2019-02-15T00:46:25.493Z,11.00
2019-02-15T00:47:25.477Z,12.10
2019-02-15T00:48:25.467Z,12.40
2019-02-15T00:49:25.464Z,12.70
2019-02-15T00:50:25.489Z,12.50
2019-02-15T00:51:25.479Z,11.10
2019-02-15T00:52:25.423Z,11.90
2019-02-15T00:53:25.411Z,11.30
2019-02-15T00:54:25.403Z,10.90
2019-02-15T00:55:25.457Z,11.80
2019-02-15T00:56:25.379Z,12.20
2019-02-15T00:57:25.401Z,10.70
2019-02-15T00:58:25.360Z,12.80
2019-02-15T00:59:25.345Z,10.80
2019-02-15T01:00:25.336Z,11.40
2019-02-15T01:01:25.376Z,12.80
2019-02-15T01:02:25.315Z,11.00
2019-02-15T01:03:25.310Z,11.80
2019-02-15T01:04:25.317Z,12.10
2019-02-15T01:05:25.282Z,11.40
2019-02-15T01:06:25.318Z,10.70
2019-02-15T01:07:25.259Z,12.00
2019-02-15T01:08:25.253Z,11.00
2019-02-15T01:09:25.245Z,12.20
2019-02-15T01:10:25.226Z,11.30
2019-02-15T01:11:25.265Z,11.80
2019-02-15T01:12:25.234Z,10.80
2019-02-15T01:13:30.976Z,11.60
2019-02-15T01:14:26.181Z,11.80
2019-02-15T01:15:25.177Z,12.60
2019-02-15T01:16:25.240Z,10.50
2019-02-15T01:17:25.154Z,12.00
2019-02-15T01:18:25.143Z,12.90
2019-02-15T01:19:25.133Z,12.40
2019-02-15T01:20:25.119Z,11.30
2019-02-15T01:21:25.162Z,11.90
2019-02-15T01:22:25.098Z,11.60
2019-02-15T01:23:25.085Z,11.90
2019-02-15T01:24:25.080Z,11.50
2019-02-15T01:25:25.063Z,12.50
2019-02-15T01:26:25.098Z,13.00
2019-02-15T01:27:25.061Z,12.50
2019-02-15T01:28:25.036Z,11.70
2019-02-15T01:29:25.025Z,11.70
2019-02-15T01:30:25.010Z,11.70
2019-02-15T01:31:25.042Z,11.10
2019-02-15T01:32:24.990Z,11.70
2019-02-15T01:33:24.977Z,12.10
2019-02-15T01:34:24.984Z,11.70
2019-02-15T01:35:24.965Z,11.90
2019-02-15T01:36:24.987Z,12.40
2019-02-15T01:37:24.935Z,11.00
2019-02-15T01:38:24.936Z,12.00
2019-02-15T01:39:24.913Z,12.00
2019-02-15T01:40:24.902Z,11.80
2019-02-15T01:41:24.950Z,12.00
2019-02-15T01:42:24.879Z,11.40
2019-02-15T01:43:24.872Z,11.60
2019-02-15T01:44:24.860Z,10.90
2019-02-15T01:45:24.849Z,11.90
2019-02-15T01:46:24.883Z,11.00
2019-02-15T01:47:24.829Z,11.60
2019-02-15T01:48:24.833Z,13.10
2019-02-15T01:49:24.806Z,11.70
2019-02-15T01:50:24.793Z,11.60
2019-02-15T01:51:24.825Z,12.20
2019-02-15T01:52:24.772Z,12.00
2019-02-15T01:53:24.765Z,12.20
2019-02-15T01:54:24.755Z,11.80
2019-02-15T01:55:24.778Z,11.20
2019-02-15T01:56:24.771Z,12.40
2019-02-15T01:57:24.720Z,11.90
2019-02-15T01:58:24.712Z,12.50
2019-02-15T01:59:24.699Z,11.90
2019-02-15T02:00:24.686Z,11.90
2019-02-15T02:01:24.887Z,11.40
2019-02-15T02:02:24.667Z,12.00
2019-02-15T02:03:24.651Z,12.30
2019-02-15T02:04:24.651Z,13.00
2019-02-15T02:05:24.630Z,12.20
2019-02-15T02:06:24.619Z,12.30
2019-02-15T02:07:24.652Z,12.20
2019-02-15T02:08:24.600Z,12.50
2019-02-15T02:09:24.595Z,12.50
2019-02-15T02:10:24.578Z,12.30
2019-02-15T02:11:24.563Z,11.60
2019-02-15T02:12:24.605Z,11.90
2019-02-15T02:13:24.542Z,12.50
2019-02-15T02:14:24.542Z,11.40
2019-02-15T02:15:24.522Z,12.00
2019-02-15T02:16:24.526Z,11.90
2019-02-15T02:17:24.603Z,12.10
2019-02-15T02:18:24.492Z,13.10
2019-02-15T02:19:24.493Z,12.70
2019-02-15T02:20:24.471Z,12.60
2019-02-15T02:21:24.459Z,11.20
2019-02-15T02:22:24.489Z,11.80
2019-02-15T02:23:24.440Z,11.70
2019-02-15T02:24:24.426Z,12.70
2019-02-15T02:25:24.414Z,11.70
2019-02-15T02:26:24.420Z,12.70
2019-02-15T02:27:24.440Z,12.20
2019-02-15T02:28:24.388Z,11.50
2019-02-15T02:29:24.370Z,12.40
2019-02-15T02:30:24.369Z,12.20
2019-02-15T02:31:24.367Z,12.40
2019-02-15T02:32:24.385Z,12.40
2019-02-15T02:33:24.330Z,12.10
2019-02-15T02:34:24.323Z,12.30
2019-02-15T02:35:24.352Z,12.40
2019-02-15T02:36:24.297Z,11.70
2019-02-15T02:37:24.331Z,12.30
2019-02-15T02:38:24.277Z,12.70
2019-02-15T02:39:24.266Z,12.10
2019-02-15T02:40:24.255Z,12.40
2019-02-15T02:41:24.305Z,11.00
2019-02-15T02:42:24.283Z,12.10
2019-02-15T02:43:24.222Z,11.50
2019-02-15T02:44:24.213Z,12.00
2019-02-15T02:45:24.204Z,11.40
2019-02-15T02:46:24.191Z,11.40
2019-02-15T02:47:24.226Z,11.50
2019-02-15T02:48:24.186Z,12.20
2019-02-15T02:49:24.209Z,12.50
2019-02-15T02:50:24.146Z,11.90
2019-02-15T02:51:24.135Z,12.00
2019-02-15T02:52:24.167Z,12.20
2019-02-15T02:53:24.116Z,11.30
2019-02-15T02:54:24.106Z,11.70
2019-02-15T02:55:24.093Z,11.80
2019-02-15T02:56:24.085Z,12.80
2019-02-15T02:57:24.115Z,12.10
2019-02-15T02:58:24.058Z,13.30
2019-02-15T02:59:24.051Z,12.20
2019-02-15T03:00:33.288Z,12.00
2019-02-15T03:01:25.027Z,12.40
2019-02-15T03:02:24.059Z,12.00
2019-02-15T03:03:24.026Z,12.90
2019-02-15T03:04:23.995Z,12.50
2019-02-15T03:05:23.983Z,11.90
2019-02-15T03:06:23.987Z,12.50
2019-02-15T03:07:24.008Z,12.40
2019-02-15T03:08:23.954Z,11.90
2019-02-15T03:09:23.971Z,11.80
2019-02-15T03:10:23.933Z,11.80
2019-02-15T03:11:23.922Z,11.60
2019-02-15T03:12:23.974Z,12.80
2019-02-15T03:13:23.900Z,12.00
2019-02-15T03:14:23.892Z,11.10
2019-02-15T03:15:23.882Z,10.70
2019-02-15T03:16:23.874Z,11.50
2019-02-15T03:17:23.900Z,11.50
2019-02-15T03:18:23.847Z,11.10
2019-02-15T03:19:23.846Z,10.80
2019-02-15T03:20:30.925Z,10.30
2019-02-15T03:21:24.822Z,10.70
2019-02-15T03:22:23.875Z,11.60
2019-02-15T03:23:23.804Z,10.60
2019-02-15T03:24:23.789Z,11.20
2019-02-15T03:25:23.779Z,10.70
2019-02-15T03:26:23.787Z,11.00
2019-02-15T03:27:23.756Z,10.40
2019-02-15T03:28:23.792Z,11.70
2019-02-15T03:29:23.736Z,10.80
2019-02-15T03:30:23.732Z,11.00
2019-02-15T03:31:23.719Z,11.30
2019-02-15T03:32:23.735Z,11.10
2019-02-15T03:33:23.749Z,11.00
2019-02-15T03:34:23.683Z,10.90
2019-02-15T03:35:23.677Z,10.60
2019-02-15T03:36:23.660Z,10.70
2019-02-15T03:37:23.657Z,10.80
2019-02-15T03:38:23.693Z,10.50
2019-02-15T03:39:23.627Z,11.10
2019-02-15T03:40:23.618Z,10.70
2019-02-15T03:41:23.605Z,11.20
2019-02-15T03:42:23.599Z,11.50
2019-02-15T03:43:23.635Z,11.10
2019-02-15T03:44:23.573Z,11.80
2019-02-15T03:45:23.570Z,11.20
2019-02-15T03:46:23.558Z,10.40
2019-02-15T03:47:23.549Z,11.20
2019-02-15T03:48:23.580Z,11.30
2019-02-15T03:49:23.528Z,11.30
2019-02-15T03:50:23.520Z,11.40
2019-02-15T03:51:23.520Z,11.10
2019-02-15T03:52:23.500Z,10.60
2019-02-15T03:53:23.523Z,10.90
2019-02-15T03:54:23.471Z,11.90
2019-02-15T03:55:23.465Z,11.10
2019-02-15T03:56:23.447Z,11.00
2019-02-15T03:57:23.438Z,11.00
2019-02-15T03:58:23.491Z,10.70
2019-02-15T03:59:23.415Z,11.40
2019-02-15T04:00:23.406Z,11.30
2019-02-15T04:01:23.405Z,10.80
2019-02-15T04:02:23.390Z,11.30
2019-02-15T04:03:23.417Z,11.60
2019-02-15T04:04:23.508Z,12.30
2019-02-15T04:05:23.358Z,11.40
2019-02-15T04:06:23.345Z,11.70
2019-02-15T04:07:23.333Z,11.60
2019-02-15T04:08:23.364Z,12.50
2019-02-15T04:09:23.311Z,12.30
2019-02-15T04:10:23.311Z,11.30
2019-02-15T04:11:23.289Z,11.30
2019-02-15T04:12:23.284Z,11.30
2019-02-15T04:13:23.315Z,12.00
2019-02-15T04:14:32.553Z,11.90
2019-02-15T04:15:24.246Z,11.50
2019-02-15T04:16:23.247Z,11.50
2019-02-15T04:17:23.232Z,11.90
2019-02-15T04:18:23.261Z,12.00
2019-02-15T04:19:23.210Z,12.20
2019-02-15T04:20:23.196Z,11.90
2019-02-15T04:21:23.188Z,11.30
2019-02-15T04:22:23.177Z,11.00
2019-02-15T04:23:23.221Z,11.70
2019-02-15T04:24:23.167Z,11.50
2019-02-15T04:25:23.147Z,11.20
2019-02-15T04:26:23.137Z,12.30
2019-02-15T04:27:23.138Z,11.80
2019-02-15T04:28:23.164Z,11.60
2019-02-15T04:29:23.109Z,11.70
2019-02-15T04:30:23.097Z,11.40
2019-02-15T04:31:23.092Z,12.10
2019-02-15T04:32:23.073Z,11.90
2019-02-15T04:33:23.109Z,11.00
2019-02-15T04:34:23.053Z,11.50
2019-02-15T04:35:23.042Z,11.40
2019-02-15T04:36:23.045Z,11.30
2019-02-15T04:37:23.024Z,11.50
2019-02-15T04:38:23.064Z,11.30
2019-02-15T04:39:23.000Z,10.90
2019-02-15T04:40:22.991Z,10.70
2019-02-15T04:41:22.978Z,11.00
2019-02-15T04:42:22.973Z,11.30
2019-02-15T04:43:23.003Z,11.60
2019-02-15T04:44:22.947Z,11.30
2019-02-15T04:45:22.934Z,11.60
2019-02-15T04:46:22.930Z,11.00
2019-02-15T04:47:22.916Z,11.90
2019-02-15T04:48:22.948Z,11.70
2019-02-15T04:49:22.894Z,12.30
2019-02-15T04:50:22.895Z,12.10
2019-02-15T04:51:22.874Z,11.90
2019-02-15T04:52:22.867Z,11.90
2019-02-15T04:53:22.979Z,11.70
2019-02-15T04:54:22.845Z,12.40
2019-02-15T04:55:22.836Z,11.10
2019-02-15T04:56:22.823Z,12.20
2019-02-15T04:57:22.818Z,11.60
2019-02-15T04:58:22.860Z,11.40
2019-02-15T04:59:22.792Z,11.20
2019-02-15T05:00:22.786Z,11.90
2019-02-15T05:01:22.777Z,10.90
2019-02-15T05:02:22.760Z,11.00
2019-02-15T05:03:22.751Z,11.50
2019-02-15T05:04:22.783Z,11.50
2019-02-15T05:05:22.739Z,11.50
2019-02-15T05:06:22.724Z,10.80
2019-02-15T05:07:22.718Z,10.40
2019-02-15T05:08:22.697Z,11.10
2019-02-15T05:09:23.984Z,10.50
2019-02-15T05:10:22.677Z,10.30
2019-02-15T05:11:22.665Z,10.70
2019-02-15T05:12:22.657Z,10.10
2019-02-15T05:13:22.653Z,10.30
2019-02-15T05:14:22.681Z,10.40
2019-02-15T05:15:22.623Z,10.40
2019-02-15T05:16:22.633Z,10.40
2019-02-15T05:17:22.618Z,11.10
2019-02-15T05:18:22.593Z,11.20
2019-02-15T05:19:22.627Z,10.80
2019-02-15T05:20:22.573Z,10.60
2019-02-15T05:21:22.562Z,10.90
2019-02-15T05:22:22.555Z,10.50
2019-02-15T05:23:22.556Z,11.10
2019-02-15T05:24:22.574Z,10.80
2019-02-15T05:25:22.522Z,9.90
2019-02-15T05:26:22.517Z,10.30
2019-02-15T05:27:22.499Z,10.80
2019-02-15T05:28:22.492Z,11.40
2019-02-15T05:29:22.542Z,11.70
2019-02-15T05:30:22.470Z,10.70
2019-02-15T05:31:22.468Z,10.50
2019-02-15T05:32:22.449Z,11.00
2019-02-15T05:33:22.437Z,11.60
2019-02-15T05:34:22.468Z,11.00
2019-02-15T05:35:22.435Z,10.80
2019-02-15T05:36:22.407Z,10.80
2019-02-15T05:37:22.396Z,11.00
2019-02-15T05:38:22.386Z,10.60
2019-02-15T05:39:22.418Z,10.20
2019-02-15T05:40:22.364Z,10.60
2019-02-15T05:41:22.358Z,10.70
2019-02-15T05:42:22.355Z,10.30
2019-02-15T05:43:22.331Z,10.10
2019-02-15T05:44:22.378Z,9.70
2019-02-15T05:45:22.319Z,10.00
2019-02-15T05:46:22.305Z,9.90
2019-02-15T05:47:22.292Z,10.10
2019-02-15T05:48:22.287Z,10.30
2019-02-15T05:49:22.327Z,9.90
2019-02-15T05:50:22.261Z,9.80
2019-02-15T05:51:22.307Z,9.50
2019-02-15T05:52:22.240Z,10.00
2019-02-15T05:53:22.234Z,9.60
2019-02-15T05:54:22.262Z,9.90
2019-02-15T05:55:22.208Z,9.50
2019-02-15T05:56:22.200Z,9.80
2019-02-15T05:57:22.220Z,9.50
2019-02-15T05:58:22.180Z,10.00
2019-02-15T05:59:22.211Z,9.70
2019-02-15T06:00:22.162Z,9.90
2019-02-15T06:01:22.148Z,9.90
2019-02-15T06:02:22.135Z,10.70
2019-02-15T06:03:22.126Z,9.20
2019-02-15T06:04:22.169Z,9.80
2019-02-15T06:05:22.114Z,9.90
2019-02-15T06:06:22.095Z,9.20
2019-02-15T06:07:22.116Z,10.50
2019-02-15T06:08:22.105Z,9.90
2019-02-15T06:09:22.107Z,9.90
2019-02-15T06:10:22.051Z,10.40
2019-02-15T06:11:22.055Z,10.60
2019-02-15T06:12:22.030Z,10.20
2019-02-15T06:13:22.093Z,9.70
2019-02-15T06:14:22.051Z,10.90
2019-02-15T06:15:22.007Z,9.80
2019-02-15T06:16:21.997Z,10.80
2019-02-15T06:17:21.985Z,10.50
2019-02-15T06:18:22.012Z,10.90
2019-02-15T06:19:22.123Z,10.90
2019-02-15T06:20:21.944Z,10.20
2019-02-15T06:21:21.935Z,11.40
2019-02-15T06:22:21.926Z,10.90
2019-02-15T06:23:21.919Z,10.70
2019-02-15T06:24:21.946Z,10.60
2019-02-15T06:25:21.894Z,10.60
2019-02-15T06:26:21.882Z,10.60
2019-02-15T06:27:21.876Z,9.90
2019-02-15T06:28:21.869Z,10.00
2019-02-15T06:29:21.895Z,9.90
2019-02-15T06:30:21.850Z,10.40
2019-02-15T06:31:21.832Z,10.10
2019-02-15T06:32:21.822Z,9.90
2019-02-15T06:33:21.813Z,9.60
2019-02-15T06:34:21.857Z,9.80
2019-02-15T06:35:21.789Z,9.90
2019-02-15T06:36:21.779Z,10.20
2019-02-15T06:37:21.767Z,9.70
2019-02-15T06:38:21.756Z,9.20
2019-02-15T06:39:21.746Z,10.20
2019-02-15T06:40:21.782Z,10.20
2019-02-15T06:41:21.735Z,9.60
2019-02-15T06:42:21.715Z,9.10
2019-02-15T06:43:21.704Z,9.10
2019-02-15T06:44:21.699Z,9.60
2019-02-15T06:45:25.002Z,9.40
2019-02-15T06:46:21.675Z,9.50
2019-02-15T06:47:21.668Z,9.60
2019-02-15T06:48:21.652Z,9.90
2019-02-15T06:49:21.652Z,10.00
2019-02-15T06:50:21.678Z,9.90
2019-02-15T06:51:21.629Z,9.40
2019-02-15T06:52:21.617Z,9.30
2019-02-15T06:53:21.607Z,9.80
2019-02-15T06:54:21.590Z,9.90
2019-02-15T06:55:21.621Z,9.80
2019-02-15T06:56:21.571Z,9.60
2019-02-15T06:57:21.559Z,10.80
2019-02-15T06:58:21.552Z,10.40
2019-02-15T06:59:21.539Z,9.60
2019-02-15T07:00:21.571Z,9.90
2019-02-15T07:01:21.516Z,10.30
2019-02-15T07:02:21.509Z,9.80
2019-02-15T07:03:21.496Z,9.60
2019-02-15T07:04:21.492Z,9.60
2019-02-15T07:05:21.518Z,9.30
2019-02-15T07:06:21.464Z,9.30
2019-02-15T07:07:21.455Z,9.10
2019-02-15T07:08:21.460Z,9.30
2019-02-15T07:09:21.437Z,9.00
2019-02-15T07:10:21.468Z,9.10
2019-02-15T07:11:21.413Z,9.40
2019-02-15T07:12:21.402Z,9.20
2019-02-15T07:13:21.453Z,8.70
2019-02-15T07:14:21.387Z,8.60
2019-02-15T07:15:21.414Z,8.70
2019-02-15T07:16:21.376Z,9.60
2019-02-15T07:17:21.350Z,8.90
2019-02-15T07:18:21.348Z,9.00
2019-02-15T07:19:21.329Z,8.50
2019-02-15T07:20:21.376Z,8.80
2019-02-15T07:21:21.308Z,8.70
2019-02-15T07:22:21.301Z,8.60
2019-02-15T07:23:21.288Z,8.30
2019-02-15T07:24:21.276Z,7.70
2019-02-15T07:25:21.323Z,7.90
2019-02-15T07:26:21.261Z,8.00
2019-02-15T07:27:21.248Z,8.00
2019-02-15T07:28:21.242Z,8.60
2019-02-15T07:29:21.225Z,8.20
2019-02-15T07:30:21.270Z,8.30
2019-02-15T07:31:21.205Z,8.30
2019-02-15T07:32:21.198Z,7.90
2019-02-15T07:33:21.184Z,8.10
2019-02-15T07:34:21.174Z,7.60
2019-02-15T07:35:21.208Z,7.80
2019-02-15T07:36:21.160Z,8.00
2019-02-15T07:37:21.151Z,8.60
2019-02-15T07:38:21.135Z,8.10
2019-02-15T07:39:21.126Z,7.50
2019-02-15T07:40:21.160Z,7.70
2019-02-15T07:41:21.101Z,8.30
2019-02-15T07:42:21.329Z,7.60
2019-02-15T07:43:21.087Z,7.70
2019-02-15T07:44:21.070Z,7.90
2019-02-15T07:45:22.641Z,7.90
2019-02-15T07:46:21.050Z,7.70
2019-02-15T07:47:21.040Z,7.70
2019-02-15T07:48:21.027Z,8.10
2019-02-15T07:49:26.926Z,7.50
2019-02-15T07:50:22.049Z,8.00
2019-02-15T07:51:20.999Z,7.50
2019-02-15T07:52:20.986Z,7.80
2019-02-15T07:53:20.976Z,8.00
2019-02-15T07:54:20.965Z,7.90
2019-02-15T07:55:20.999Z,8.20
2019-02-15T07:56:20.945Z,7.20
2019-02-15T07:57:20.935Z,7.10
2019-02-15T07:58:20.930Z,7.30
2019-02-15T07:59:20.913Z,8.00
2019-02-15T08:00:20.948Z,7.60
2019-02-15T08:01:20.895Z,7.10
2019-02-15T08:02:20.882Z,7.30
2019-02-15T08:03:20.881Z,7.20
2019-02-15T08:04:20.860Z,7.20
2019-02-15T08:05:20.913Z,6.30
2019-02-15T08:06:20.843Z,6.30
2019-02-15T08:07:20.827Z,6.20
2019-02-15T08:08:20.814Z,6.10
2019-02-15T08:09:20.809Z,5.60
2019-02-15T08:10:20.793Z,6.50
2019-02-15T08:11:20.832Z,5.80
2019-02-15T08:12:20.771Z,5.80
2019-02-15T08:13:20.763Z,5.90
2019-02-15T08:14:20.751Z,5.10
2019-02-15T08:15:20.749Z,5.50
2019-02-15T08:16:20.778Z,5.60
2019-02-15T08:17:20.717Z,5.30
2019-02-15T08:18:20.754Z,5.30
2019-02-15T08:19:21.247Z,5.30
2019-02-15T08:20:20.694Z,5.30
2019-02-15T08:21:20.717Z,5.30
2019-02-15T08:22:22.658Z,5.00
2019-02-15T08:23:20.657Z,5.30
2019-02-15T08:24:20.639Z,5.40
2019-02-15T08:25:20.629Z,5.70
2019-02-15T08:26:20.660Z,4.80
2019-02-15T08:27:20.609Z,4.90
2019-02-15T08:28:20.595Z,4.90
2019-02-15T08:29:20.589Z,5.20
2019-02-15T08:30:22.077Z,4.50
2019-02-15T08:31:20.606Z,4.80
2019-02-15T08:32:20.550Z,5.00
2019-02-15T08:33:20.541Z,4.90
2019-02-15T08:34:20.529Z,4.80
2019-02-15T08:35:20.518Z,4.60
2019-02-15T08:36:20.553Z,5.00
2019-02-15T08:37:20.495Z,5.20
2019-02-15T08:38:20.483Z,5.00
2019-02-15T08:39:20.478Z,4.70
2019-02-15T08:40:20.462Z,5.20
2019-02-15T08:41:20.494Z,4.70
2019-02-15T08:42:20.452Z,5.00
2019-02-15T08:43:20.433Z,4.70
2019-02-15T08:44:20.417Z,4.70
2019-02-15T08:45:20.407Z,4.90
2019-02-15T08:46:20.437Z,5.00
2019-02-15T08:47:20.389Z,4.80
2019-02-15T08:48:20.375Z,4.30
2019-02-15T08:49:20.365Z,4.40
2019-02-15T08:50:20.357Z,4.70
2019-02-15T08:51:20.390Z,4.00
2019-02-15T08:52:20.335Z,4.30
2019-02-15T08:53:20.319Z,4.00
2019-02-15T08:54:20.316Z,3.80
2019-02-15T08:55:20.295Z,3.60
2019-02-15T08:56:20.336Z,4.00
2019-02-15T08:57:20.274Z,3.70
2019-02-15T08:58:20.262Z,3.80
2019-02-15T08:59:20.252Z,3.60
2019-02-15T09:00:20.242Z,3.60
2019-02-15T09:01:20.272Z,3.50
2019-02-15T09:02:20.217Z,3.40
2019-02-15T09:03:22.003Z,3.70
2019-02-15T09:04:20.196Z,3.40
2019-02-15T09:05:20.188Z,3.70
2019-02-15T09:06:20.217Z,3.60
2019-02-15T09:07:20.168Z,3.40
2019-02-15T09:08:20.154Z,3.30
2019-02-15T09:09:20.148Z,4.00
2019-02-15T09:10:20.132Z,3.50
2019-02-15T09:11:20.175Z,3.10
2019-02-15T09:12:20.113Z,3.70
2019-02-15T09:13:20.101Z,3.70
2019-02-15T09:14:20.085Z,3.70
2019-02-15T09:15:20.076Z,3.50
2019-02-15T09:16:20.064Z,3.70
2019-02-15T09:17:20.095Z,3.90
2019-02-15T09:18:20.040Z,3.40
2019-02-15T09:19:20.027Z,3.40
2019-02-15T09:20:20.030Z,3.70
2019-02-15T09:21:20.005Z,3.60
2019-02-15T09:22:20.039Z,3.40
2019-02-15T09:23:19.989Z,3.50
2019-02-15T09:24:19.971Z,3.80
2019-02-15T09:25:19.967Z,3.30
2019-02-15T09:26:19.952Z,4.00
2019-02-15T09:27:19.984Z,3.70
2019-02-15T09:28:19.938Z,3.40
2019-02-15T09:29:19.916Z,3.40
2019-02-15T09:30:19.907Z,3.50
2019-02-15T09:31:19.896Z,3.50
2019-02-15T09:32:19.927Z,3.50
2019-02-15T09:33:19.873Z,3.30
2019-02-15T09:34:19.865Z,3.50
2019-02-15T09:35:19.870Z,3.20
2019-02-15T09:36:19.842Z,3.20
2019-02-15T09:37:19.870Z,2.90
2019-02-15T09:38:19.819Z,3.30
2019-02-15T09:39:19.804Z,3.10
2019-02-15T09:40:19.796Z,3.20
2019-02-15T09:41:19.782Z,2.90
2019-02-15T09:42:19.820Z,3.20
2019-02-15T09:43:19.758Z,3.20
2019-02-15T09:44:19.750Z,3.30
2019-02-15T09:45:19.743Z,2.90
2019-02-15T09:46:20.378Z,3.10
2019-02-15T09:47:19.760Z,3.40
2019-02-15T09:48:19.720Z,3.40
2019-02-15T09:49:20.569Z,3.10
2019-02-15T09:50:19.681Z,3.30
2019-02-15T09:51:19.669Z,2.90
2019-02-15T09:52:19.703Z,3.10
2019-02-15T09:53:19.647Z,2.90
2019-02-15T09:54:19.655Z,3.30
2019-02-15T09:55:19.626Z,3.10
2019-02-15T09:56:19.612Z,3.20
2019-02-15T09:57:19.646Z,3.30
2019-02-15T09:58:19.591Z,3.00
2019-02-15T09:59:19.580Z,3.40
2019-02-15T10:00:19.568Z,3.60
2019-02-15T10:01:19.556Z,3.20
2019-02-15T10:02:19.590Z,2.90
2019-02-15T10:03:19.543Z,3.00
2019-02-15T10:04:19.527Z,3.50
2019-02-15T10:05:19.515Z,3.30
2019-02-15T10:06:19.503Z,3.00
2019-02-15T10:07:19.538Z,3.10
2019-02-15T10:08:19.497Z,3.10
2019-02-15T10:09:19.469Z,3.30
2019-02-15T10:10:19.467Z,3.30
2019-02-15T10:11:19.446Z,3.20
2019-02-15T10:12:19.484Z,3.40
2019-02-15T10:13:19.438Z,3.30
2019-02-15T10:14:19.433Z,3.20
2019-02-15T10:15:19.452Z,3.10
2019-02-15T10:16:28.337Z,3.20
2019-02-15T10:17:20.517Z,3.60
2019-02-15T10:18:19.379Z,3.70
2019-02-15T10:19:22.460Z,3.20
2019-02-15T10:20:19.379Z,3.60
2019-02-15T10:21:19.337Z,3.40
2019-02-15T10:22:19.370Z,3.80
2019-02-15T10:23:19.324Z,3.40
2019-02-15T10:24:19.305Z,3.30
2019-02-15T10:25:19.292Z,3.80
2019-02-15T10:26:19.286Z,3.40
2019-02-15T10:27:19.313Z,3.40
2019-02-15T10:28:19.260Z,3.60
2019-02-15T10:29:19.246Z,3.50
2019-02-15T10:30:19.239Z,3.30
2019-02-15T10:31:19.227Z,3.70
2019-02-15T10:32:19.261Z,3.50
2019-02-15T10:33:19.201Z,3.50
2019-02-15T10:34:19.194Z,3.30
2019-02-15T10:35:19.186Z,3.50
2019-02-15T10:36:19.174Z,3.10
2019-02-15T10:37:19.249Z,3.30
2019-02-15T10:38:19.151Z,3.20
2019-02-15T10:39:19.137Z,3.30
2019-02-15T10:40:19.124Z,3.30
2019-02-15T10:41:19.117Z,3.40
2019-02-15T10:42:19.104Z,3.30
2019-02-15T10:43:19.135Z,3.60
2019-02-15T10:44:19.080Z,2.90
2019-02-15T10:45:19.068Z,3.60
2019-02-15T10:46:19.065Z,3.30
2019-02-15T10:47:25.029Z,3.50
2019-02-15T10:48:20.083Z,3.40
2019-02-15T10:49:19.023Z,3.70
2019-02-15T10:50:19.014Z,3.50
2019-02-15T10:51:19.003Z,3.40
2019-02-15T10:52:19.004Z,3.80
2019-02-15T10:53:19.024Z,3.50
2019-02-15T10:54:18.970Z,3.60
2019-02-15T10:55:18.958Z,3.60
2019-02-15T10:56:18.946Z,3.70
2019-02-15T10:57:18.936Z,3.70
2019-02-15T10:58:18.975Z,3.10
2019-02-15T10:59:18.914Z,3.60
2019-02-15T11:00:18.906Z,3.30
2019-02-15T11:01:18.890Z,3.70
2019-02-15T11:02:18.885Z,3.20
2019-02-15T11:03:18.912Z,3.60
2019-02-15T11:04:18.863Z,3.60
2019-02-15T11:05:18.859Z,3.40
2019-02-15T11:06:18.842Z,3.30
2019-02-15T11:07:18.828Z,3.40
2019-02-15T11:08:18.867Z,3.40
2019-02-15T11:09:18.810Z,3.50
2019-02-15T11:10:18.792Z,3.60
2019-02-15T11:11:18.796Z,3.40
2019-02-15T11:12:18.770Z,3.00
2019-02-15T11:13:18.807Z,3.60
2019-02-15T11:14:18.748Z,3.30
2019-02-15T11:15:18.737Z,3.30
2019-02-15T11:16:18.727Z,3.20
2019-02-15T11:17:18.746Z,3.20
2019-02-15T11:18:18.746Z,3.70
2019-02-15T11:19:18.691Z,3.50
2019-02-15T11:20:18.682Z,3.20
2019-02-15T11:21:18.675Z,3.40
2019-02-15T11:22:18.664Z,3.40
2019-02-15T11:23:18.703Z,3.30
2019-02-15T11:24:18.638Z,3.10
2019-02-15T11:25:18.625Z,3.00
2019-02-15T11:26:24.500Z,3.10
2019-02-15T11:27:19.609Z,2.90
2019-02-15T11:28:18.636Z,3.10
2019-02-15T11:29:18.586Z,3.30
2019-02-15T11:30:18.571Z,3.00
2019-02-15T11:31:18.558Z,3.40
2019-02-15T11:32:18.551Z,3.10
2019-02-15T11:33:18.587Z,3.00
2019-02-15T11:34:18.523Z,2.90
2019-02-15T11:35:18.513Z,3.00
2019-02-15T11:36:18.507Z,3.20
2019-02-15T11:37:18.487Z,3.20
2019-02-15T11:38:18.526Z,2.90
2019-02-15T11:39:18.467Z,2.90
2019-02-15T11:40:18.456Z,3.00
2019-02-15T11:41:18.444Z,3.00
2019-02-15T11:42:18.444Z,3.30
2019-02-15T11:43:18.464Z,2.80
2019-02-15T11:44:18.410Z,2.60
2019-02-15T11:45:18.398Z,3.00
2019-02-15T11:46:18.393Z,2.90
2019-02-15T11:47:18.376Z,2.90
2019-02-15T11:48:18.410Z,2.60
2019-02-15T11:49:18.353Z,3.00
2019-02-15T11:50:18.347Z,3.20
2019-02-15T11:51:18.331Z,3.10
2019-02-15T11:52:18.321Z,2.70
2019-02-15T11:53:18.350Z,3.00
2019-02-15T11:54:23.553Z,2.80
2019-02-15T11:55:19.287Z,2.40
2019-02-15T11:56:18.273Z,2.90
2019-02-15T11:57:18.264Z,2.40
2019-02-15T11:58:18.299Z,2.70
2019-02-15T11:59:18.241Z,2.80
2019-02-15T12:00:20.347Z,3.10
2019-02-15T12:01:18.220Z,2.70
2019-02-15T12:02:18.207Z,2.50
2019-02-15T12:03:18.342Z,2.40
2019-02-15T12:04:18.202Z,2.90
2019-02-15T12:05:18.188Z,2.10
2019-02-15T12:06:18.183Z,2.20
2019-02-15T12:07:18.162Z,2.00
2019-02-15T12:08:18.189Z,2.30
2019-02-15T12:09:18.128Z,2.70
2019-02-15T12:10:18.117Z,2.20
2019-02-15T12:11:18.110Z,2.20
2019-02-15T12:12:18.091Z,2.30
2019-02-15T12:13:18.138Z,2.20
2019-02-15T12:14:18.075Z,2.10
2019-02-15T12:15:18.057Z,2.30
2019-02-15T12:16:18.047Z,1.90
2019-02-15T12:17:18.035Z,2.10
2019-02-15T12:18:18.025Z,2.40
2019-02-15T12:19:18.058Z,2.30
2019-02-15T12:20:18.003Z,2.10
2019-02-15T12:21:17.997Z,2.20
2019-02-15T12:22:17.984Z,2.10
2019-02-15T12:23:17.973Z,2.40
2019-02-15T12:24:18.002Z,2.10
2019-02-15T12:25:17.953Z,2.30
2019-02-15T12:26:17.944Z,2.20
2019-02-15T12:27:17.955Z,2.30
2019-02-15T12:28:17.915Z,2.20
2019-02-15T12:29:17.950Z,2.10
2019-02-15T12:30:17.899Z,2.10
2019-02-15T12:31:17.888Z,2.10
2019-02-15T12:32:17.871Z,2.60
2019-02-15T12:33:17.867Z,2.40
2019-02-15T12:34:17.892Z,2.70
2019-02-15T12:35:17.850Z,2.60
2019-02-15T12:36:17.834Z,2.90
2019-02-15T12:37:17.816Z,2.90
2019-02-15T12:38:17.808Z,3.00
2019-02-15T12:39:17.876Z,2.70
2019-02-15T12:40:17.784Z,3.30
2019-02-15T12:41:17.773Z,2.90
2019-02-15T12:42:17.760Z,2.60
2019-02-15T12:43:17.749Z,2.60
2019-02-15T12:44:17.845Z,2.20
2019-02-15T12:45:17.736Z,2.40
2019-02-15T12:46:17.733Z,2.30
2019-02-15T12:47:17.726Z,2.70
2019-02-15T12:48:17.702Z,2.60
2019-02-15T12:49:17.736Z,2.40
2019-02-15T12:50:17.705Z,2.80
2019-02-15T12:51:17.666Z,2.30
2019-02-15T12:52:17.650Z,2.70
2019-02-15T12:53:17.663Z,2.60
2019-02-15T12:54:17.669Z,2.70
2019-02-15T12:55:17.617Z,2.50
2019-02-15T12:56:18.137Z,2.20
2019-02-15T12:57:17.594Z,2.00
2019-02-15T12:58:17.582Z,2.10
2019-02-15T12:59:17.636Z,1.80
2019-02-15T13:00:17.560Z,2.00
2019-02-15T13:01:17.553Z,2.10
2019-02-15T13:02:17.558Z,1.80
2019-02-15T13:03:17.527Z,2.00
2019-02-15T13:04:17.562Z,2.00
2019-02-15T13:05:17.513Z,1.90